Pollux Star — HOLT — position and weather

sailwx.info

Track history (hours):
 
Tides and Currents Weather Stations Pressure Air Temp Water Temp Dewpoint Dewpoint Depression Visibility Wind Speed Wind Dir Waves Ship Positions

Pollux Star

Last reported at 2018-Jul-18 13:55 UTC. Time now 2018-Jul-18 14:40 UTC.
Position S 07°05' E 112°39'.

Length 190 m; draft 11.4 m.

Type: Cargo ship. MMSI: 357955000.

Date/timePositionNaut miles runAvg speedWind from/ knotsBaromVisibWave heightAir tempDewpointWater temp
2018-Jul-18 13:55S 07°05' E 112°39'0 0.0
2018-Jul-17 14:13S 07°05' E 112°39'0 0.0
2018-Jul-17 09:10S 07°05' E 112°39'0 0.0
2018-Jul-17 07:16S 07°05' E 112°39'0 0.0
2018-Jul-17 06:55S 07°05' E 112°39'0 0.0
2018-Jul-17 06:25S 07°05' E 112°39'0 0.0
2018-Jul-16 21:31S 07°05' E 112°39'0 0.0
2018-Jul-16 20:04S 07°05' E 112°39'0 0.0
2018-Jul-16 17:22S 07°05' E 112°39'0 0.0
2018-Jul-16 08:04S 07°05' E 112°39'0 0.0
2018-Jul-15 10:23S 07°05' E 112°39'0 0.0
2018-Jul-15 09:58S 07°05' E 112°39'0 0.2
2018-Jul-15 09:27S 07°05' E 112°39'1 1.4
2018-Jul-15 08:54S 07°04' E 112°40'1 2.0
2018-Jul-15 08:30S 07°04' E 112°40'1 2.6
2018-Jul-15 08:00S 07°02' E 112°40'2 4.6
2018-Jul-15 07:29S 07°00' E 112°41'7 7.8
2018-Jul-15 06:37S 06°54' E 112°44'2 9.3
2018-Jul-15 06:27S 06°53' E 112°44'4 3.1
2018-Jul-15 05:06S 06°50' E 112°47'0 0.0
2018-Jul-13 13:19S 06°49' E 112°47'0 0.0
2018-Jul-12 04:40S 06°49' E 112°47'0 0.0
2018-Jul-11 20:34S 06°49' E 112°47'0 0.0
2018-Jul-11 18:34S 06°49' E 112°47'0 0.0
2018-Jul-11 18:28S 06°49' E 112°47'0 0.0
2018-Jul-11 08:25S 06°50' E 112°47'0 0.1
2018-Jul-11 07:43S 06°49' E 112°47'0 0.3
2018-Jul-11 07:29S 06°49' E 112°47'4 7.0
2018-Jul-11 06:56S 06°46' E 112°45'  
Track history (hours):
 
Tides and Currents Weather Stations Pressure Air Temp Water Temp Dewpoint Dewpoint Depression Visibility Wind Speed Wind Dir Waves Ship Positions

Pollux Star

Last reported at 2018-Jul-18 13:55 UTC. Time now 2018-Jul-18 14:40 UTC.
Position S 07°05' E 112°39'.

Length 190 m; draft 11.4 m.

Type: Cargo ship. MMSI: 357955000.

Date/timePositionNaut miles runAvg speedWind from/ knotsBaromVisibWave heightAir tempDewpointWater temp
2018-Jul-18 13:55S 07°05' E 112°39'0 0.0
2018-Jul-17 14:13S 07°05' E 112°39'0 0.0
2018-Jul-17 09:10S 07°05' E 112°39'0 0.0
2018-Jul-17 07:16S 07°05' E 112°39'0 0.0
2018-Jul-17 06:55S 07°05' E 112°39'0 0.0
2018-Jul-17 06:25S 07°05' E 112°39'0 0.0
2018-Jul-16 21:31S 07°05' E 112°39'0 0.0
2018-Jul-16 20:04S 07°05' E 112°39'0 0.0
2018-Jul-16 17:22S 07°05' E 112°39'0 0.0
2018-Jul-16 08:04S 07°05' E 112°39'0 0.0
2018-Jul-15 10:23S 07°05' E 112°39'0 0.0
2018-Jul-15 09:58S 07°05' E 112°39'0 0.2
2018-Jul-15 09:27S 07°05' E 112°39'1 1.4
2018-Jul-15 08:54S 07°04' E 112°40'1 2.0
2018-Jul-15 08:30S 07°04' E 112°40'1 2.6
2018-Jul-15 08:00S 07°02' E 112°40'2 4.6
2018-Jul-15 07:29S 07°00' E 112°41'7 7.8
2018-Jul-15 06:37S 06°54' E 112°44'2 9.3
2018-Jul-15 06:27S 06°53' E 112°44'4 3.1
2018-Jul-15 05:06S 06°50' E 112°47'0 0.0
2018-Jul-13 13:19S 06°49' E 112°47'0 0.0
2018-Jul-12 04:40S 06°49' E 112°47'0 0.0
2018-Jul-11 20:34S 06°49' E 112°47'0 0.0
2018-Jul-11 18:34S 06°49' E 112°47'0 0.0
2018-Jul-11 18:28S 06°49' E 112°47'0 0.0
2018-Jul-11 08:25S 06°50' E 112°47'0 0.1
2018-Jul-11 07:43S 06°49' E 112°47'0 0.3
2018-Jul-11 07:29S 06°49' E 112°47'4 7.0
2018-Jul-11 06:56S 06°46' E 112°45'  

Dump ship's entire track history